Time;durP1;ratioP1;P1;durP2;ratioP2;P2;SDS_P1;SDS_P2;PMS_P1;PMS_P2;Temp;Humidity;BMP_temperature;BMP_pressure;BME280_temperature;BME280_humidity;BME280_pressure;Samples;Min_cycle;Max_cycle;Signal;HPM_P1;HPM_P2
2023/09/29 00:00:17;;;;;;;19.30;6.40;;;;;;;17.92;47.68;100116.26;78345;1298;3028150;-70
2023/09/29 00:02:47;;;;;;;11.80;6.40;;;;;;;17.87;47.86;100115.73;79192;1294;3011577;-71
2023/09/29 00:05:19;;;;;;;14.70;6.30;;;;;;;17.85;48.10;100116.79;79597;1296;3014871;-73
2023/09/29 00:07:48;;;;;;;12.30;6.20;;;;;;;17.85;47.84;100113.45;78282;1299;3052495;-70
2023/09/29 00:10:20;;;;;;;17.10;6.90;;;;;;;17.83;48.32;100116.96;79579;1294;3012843;-70
2023/09/29 00:12:49;;;;;;;20.20;5.90;;;;;;;17.84;47.99;100114.27;78300;1300;3053175;-72
2023/09/29 00:15:17;;;;;;;13.70;6.10;;;;;;;17.85;47.62;100116.26;79586;1297;3011548;-70
2023/09/29 00:17:43;;;;;;;14.20;5.80;;;;;;;17.84;47.96;100116.20;79603;1299;3011584;-73
2023/09/29 00:20:24;;;;;;;13.60;6.00;;;;;;;17.80;47.87;100115.95;78207;1299;3050414;-71
2023/09/29 00:22:53;;;;;;;21.50;6.00;;;;;;;17.77;48.16;100112.45;78268;1297;3054060;-68
2023/09/29 00:25:19;;;;;;;11.30;6.00;;;;;;;17.76;48.05;100113.61;79618;1294;3013029;-70
2023/09/29 00:27:46;;;;;;;10.60;6.00;;;;;;;17.74;48.14;100111.81;79430;1294;3011855;-69
2023/09/29 00:30:17;;;;;;;15.20;6.70;;;;;;;17.70;48.11;100115.02;78290;1298;3068198;-69
2023/09/29 00:32:50;;;;;;;14.90;6.00;;;;;;;17.68;48.36;100117.44;79495;1295;3011672;-66
2023/09/29 00:35:29;;;;;;;16.40;6.10;;;;;;;17.64;48.62;100116.52;78396;1294;3057105;-67
2023/09/29 00:37:57;;;;;;;19.90;6.30;;;;;;;17.64;48.43;100117.64;78270;1300;3049263;-69
2023/09/29 00:40:24;;;;;;;15.90;6.00;;;;;;;17.65;48.22;100117.50;79542;1300;3013526;-70
2023/09/29 00:42:52;;;;;;;15.10;6.60;;;;;;;17.63;48.61;100119.82;79400;1300;3011554;-72
2023/09/29 00:45:23;;;;;;;13.40;6.60;;;;;;;17.62;48.50;100119.70;78287;1297;3052358;-72
2023/09/29 00:47:50;;;;;;;12.50;6.20;;;;;;;17.62;48.56;100120.42;79634;1297;3011722;-70
2023/09/29 00:50:19;;;;;;;11.90;6.00;;;;;;;17.58;48.62;100120.87;79049;1294;3011824;-73
2023/09/29 00:52:46;;;;;;;13.30;6.10;;;;;;;17.55;48.83;100122.06;79833;1295;3012922;-70
2023/09/29 00:55:16;;;;;;;18.20;6.40;;;;;;;17.53;48.55;100121.27;79617;1296;3011698;-69
2023/09/29 00:57:47;;;;;;;9.50;5.90;;;;;;;17.51;48.81;100121.65;78246;1300;3049635;-67
2023/09/29 01:01:00;;;;;;;18.50;6.60;;;;;;;17.49;49.01;100121.63;79333;1300;3011947;-66
2023/09/29 01:03:06;;;;;;;13.50;6.80;;;;;;;17.47;49.09;100127.95;78190;1300;3053286;-66
2023/09/29 01:05:42;;;;;;;14.70;5.80;;;;;;;17.44;48.73;100122.89;79494;1294;3011505;-70
2023/09/29 01:08:12;;;;;;;10.80;6.10;;;;;;;17.43;49.20;100125.77;78370;1299;3052949;-67
2023/09/29 01:10:40;;;;;;;12.60;6.20;;;;;;;17.43;49.21;100120.34;79475;1300;3011518;-73
2023/09/29 01:13:09;;;;;;;20.60;6.80;;;;;;;17.39;49.53;100122.22;79015;1297;3011825;-68
2023/09/29 01:15:36;;;;;;;22.00;6.20;;;;;;;17.40;49.03;100122.17;79562;1294;3013325;-65
2023/09/29 01:18:03;;;;;;;16.70;6.60;;;;;;;17.38;49.28;100123.91;79449;1297;3011929;-66
2023/09/29 01:20:31;;;;;;;16.90;6.50;;;;;;;17.38;49.06;100126.19;78191;1300;3053730;-65
2023/09/29 01:23:03;;;;;;;13.20;6.10;;;;;;;17.36;49.50;100128.16;79386;1299;3014058;-71
2023/09/29 01:25:31;;;;;;;17.90;6.60;;;;;;;17.35;49.27;100127.00;78153;1294;3058176;-72
2023/09/29 01:27:58;;;;;;;12.40;6.10;;;;;;;17.35;49.38;100128.89;79567;1298;3013097;-67
2023/09/29 01:30:27;;;;;;;18.50;6.70;;;;;;;17.33;49.48;100127.11;79445;1300;3011793;-70
2023/09/29 01:32:57;;;;;;;10.00;6.20;;;;;;;17.29;49.49;100126.35;78143;1297;3051841;-68
2023/09/29 01:35:23;;;;;;;19.20;6.30;;;;;;;17.24;49.77;100126.73;79502;1300;3012937;-68
2023/09/29 01:37:53;;;;;;;13.50;6.90;;;;;;;17.20;49.79;100131.27;79466;1299;3013131;-72
2023/09/29 01:40:23;;;;;;;14.30;6.20;;;;;;;17.19;49.85;100131.37;78314;1294;3058759;-69
2023/09/29 01:42:51;;;;;;;22.80;6.30;;;;;;;17.18;49.92;100126.70;79442;1299;3012892;-69
2023/09/29 01:45:19;;;;;;;18.30;6.80;;;;;;;17.17;50.12;100131.02;78219;1298;3027476;-66
2023/09/29 01:47:46;;;;;;;15.70;6.70;;;;;;;17.18;49.63;100129.67;79374;1300;3012976;-72
2023/09/29 01:50:16;;;;;;;14.20;6.90;;;;;;;17.18;49.96;100130.04;79498;1298;3011649;-69
2023/09/29 01:52:44;;;;;;;14.00;6.40;;;;;;;17.13;50.20;100131.34;78216;1295;3069144;-69
2023/09/29 01:55:14;;;;;;;18.40;6.30;;;;;;;17.12;50.09;100134.40;79535;1300;3013014;-72
2023/09/29 01:57:43;;;;;;;20.60;7.20;;;;;;;17.10;50.11;100137.70;79254;1295;3013099;-69
2023/09/29 02:00:14;;;;;;;19.60;6.70;;;;;;;17.09;50.29;100141.33;79501;1299;3018538;-68
2023/09/29 02:02:43;;;;;;;13.00;6.80;;;;;;;17.10;50.33;100138.98;78623;1295;3049462;-69
2023/09/29 02:05:11;;;;;;;13.20;6.90;;;;;;;17.05;50.66;100137.91;79691;1300;3012660;-67
2023/09/29 02:07:39;;;;;;;12.60;6.90;;;;;;;17.00;50.86;100135.30;79539;1299;3011383;-69
2023/09/29 02:10:10;;;;;;;14.30;6.30;;;;;;;16.97;50.81;100135.59;78233;1295;3050969;-70
2023/09/29 02:12:47;;;;;;;18.50;7.00;;;;;;;16.92;51.10;100134.14;79502;1295;3012129;-71
2023/09/29 02:15:18;;;;;;;11.70;7.10;;;;;;;16.92;51.21;100135.59;78215;1297;3049791;-68
2023/09/29 02:17:45;;;;;;;10.60;6.60;;;;;;;16.93;50.76;100131.98;79502;1300;3012645;-72
2023/09/29 02:20:28;;;;;;;15.90;6.70;;;;;;;16.91;51.00;100136.39;78259;1299;3026650;-71
2023/09/29 02:22:57;;;;;;;;;;;;;;;16.88;51.32;100136.24;78335;1298;3052253;-72
2023/09/29 02:25:26;;;;;;;14.50;7.20;;;;;;;16.85;51.20;100138.79;79713;1297;3013008;-65
2023/09/29 02:27:56;;;;;;;15.90;6.60;;;;;;;16.82;51.50;100132.80;79267;1295;3013152;-68
2023/09/29 02:30:24;;;;;;;12.70;6.50;;;;;;;16.81;51.41;100135.16;79652;1294;3013201;-67
2023/09/29 02:32:53;;;;;;;16.70;7.00;;;;;;;16.75;51.63;100128.84;79531;1299;3013364;-71
2023/09/29 02:35:21;;;;;;;17.10;6.30;;;;;;;16.70;51.73;100125.20;78548;1299;3053257;-70
2023/09/29 02:37:48;;;;;;;23.70;7.30;;;;;;;16.71;51.69;100125.30;79621;1297;3018460;-71
2023/09/29 02:40:15;;;;;;;15.50;6.80;;;;;;;16.72;51.67;100127.83;80048;1294;3011802;-69
2023/09/29 02:42:46;;;;;;;14.60;6.60;;;;;;;16.70;51.95;100127.83;78857;1294;3069484;-68
2023/09/29 02:45:13;;;;;;;22.10;7.90;;;;;;;16.66;52.00;100128.70;79888;1294;3013602;-68
2023/09/29 02:47:42;;;;;;;12.80;6.90;;;;;;;16.67;51.85;100128.78;79158;1294;3012082;-72
2023/09/29 02:50:09;;;;;;;19.40;7.30;;;;;;;16.68;51.77;100130.86;79866;1298;3018437;-68
2023/09/29 02:52:40;;;;;;;18.10;7.60;;;;;;;16.65;51.92;100129.61;79521;1294;3011723;-66
2023/09/29 02:55:12;;;;;;;11.90;7.20;;;;;;;16.61;52.22;100133.80;78303;1299;3051653;-69
2023/09/29 02:57:42;;;;;;;18.20;6.90;;;;;;;16.59;52.34;100132.34;79592;1299;3011836;-71
2023/09/29 03:00:21;;;;;;;24.00;6.80;;;;;;;16.58;52.15;100130.68;78244;1294;3068563;-71
2023/09/29 03:02:51;;;;;;;15.90;7.50;;;;;;;16.57;52.28;100134.85;78402;1300;3050815;-68
2023/09/29 03:05:21;;;;;;;14.80;6.90;;;;;;;16.52;52.83;100133.80;79892;1294;3011648;-70
2023/09/29 03:07:49;;;;;;;25.60;7.60;;;;;;;16.49;52.61;100130.63;78334;1299;3050578;-69
2023/09/29 03:10:16;;;;;;;15.80;8.00;;;;;;;16.47;52.64;100131.73;79583;1300;3021241;-68
2023/09/29 03:12:46;;;;;;;16.20;7.60;;;;;;;16.46;52.87;100134.73;79644;1294;3013249;-68
2023/09/29 03:15:15;;;;;;;15.60;7.00;;;;;;;16.48;52.64;100132.34;78225;1295;3053251;-71
2023/09/29 03:17:45;;;;;;;18.40;8.00;;;;;;;16.43;53.05;100130.60;79607;1300;3013611;-67
2023/09/29 03:20:14;;;;;;;22.90;8.30;;;;;;;16.38;52.97;100134.27;78326;1299;3057251;-70
2023/09/29 03:22:43;;;;;;;19.10;7.30;;;;;;;16.38;53.29;100132.02;79601;1294;3013362;-70
2023/09/29 03:25:20;;;;;;;13.70;7.50;;;;;;;16.36;53.23;100133.23;79175;1297;3013573;-72
2023/09/29 03:27:48;;;;;;;16.70;7.90;;;;;;;16.31;53.38;100130.92;78314;1298;3050773;-68
2023/09/29 03:30:15;;;;;;;18.70;7.40;;;;;;;16.31;53.20;100131.47;79531;1300;3013228;-71
2023/09/29 03:32:43;;;;;;;15.60;7.40;;;;;;;16.27;53.51;100132.65;79812;1298;3011620;-71
2023/09/29 03:35:11;;;;;;;24.70;8.10;;;;;;;16.29;53.15;100134.42;78503;1295;3050407;-64
2023/09/29 03:37:39;;;;;;;16.40;7.50;;;;;;;16.32;53.33;100134.41;79856;1300;3013289;-72
2023/09/29 03:40:08;;;;;;;14.80;7.40;;;;;;;16.31;53.04;100132.89;79772;1299;3011634;-69
2023/09/29 03:42:37;;;;;;;17.60;7.90;;;;;;;16.28;53.39;100134.33;78480;1295;3049571;-67
2023/09/29 03:45:05;;;;;;;19.80;7.50;;;;;;;16.28;53.08;100133.95;79601;1300;3013278;-66
2023/09/29 03:47:35;;;;;;;20.40;7.90;;;;;;;16.28;53.27;100137.46;78257;1299;3067662;-68
2023/09/29 03:50:01;;;;;;;23.30;8.30;;;;;;;16.28;53.34;100139.43;79499;1294;3013125;-67
2023/09/29 03:52:32;;;;;;;21.20;8.10;;;;;;;16.28;53.26;100139.48;79680;1294;3011644;-71
2023/09/29 03:54:59;;;;;;;16.50;7.50;;;;;;;16.28;53.36;100141.20;78463;1300;3053721;-69
2023/09/29 03:57:26;;;;;;;16.30;7.20;;;;;;;16.27;53.52;100143.41;79572;1297;3012939;-72
2023/09/29 03:59:52;;;;;;;20.00;7.80;;;;;;;16.32;53.07;100142.56;79948;1294;3011604;-68
2023/09/29 04:02:20;;;;;;;16.40;7.90;;;;;;;16.33;53.25;100148.09;78705;1298;3025071;-69
2023/09/29 04:04:47;;;;;;;25.20;8.20;;;;;;;16.34;53.35;100144.35;79448;1295;3018329;-72
2023/09/29 04:07:14;;;;;;;21.70;8.20;;;;;;;16.36;53.21;100142.07;79458;1296;3011783;-69
2023/09/29 04:09:42;;;;;;;19.80;7.70;;;;;;;16.38;53.01;100143.45;78387;1299;3053128;-73
2023/09/29 04:12:09;;;;;;;19.70;7.80;;;;;;;16.37;53.44;100144.42;79537;1298;3018960;-76
2023/09/29 04:14:35;;;;;;;19.10;8.10;;;;;;;16.37;53.26;100144.46;79652;1294;3011671;-71
2023/09/29 04:17:04;;;;;;;15.80;8.00;;;;;;;16.40;53.31;100147.40;78471;1299;3026517;-71
2023/09/29 04:19:31;;;;;;;16.10;8.40;;;;;;;16.41;53.29;100147.52;79666;1295;3011350;-75
2023/09/29 04:21:57;;;;;;;19.20;8.30;;;;;;;16.40;53.29;100150.39;79468;1299;3011703;-72
2023/09/29 04:24:25;;;;;;;20.10;8.30;;;;;;;16.47;52.88;100152.05;78400;1300;3053062;-70
2023/09/29 04:26:52;;;;;;;19.10;7.30;;;;;;;16.46;53.17;100148.69;79611;1310;3013315;-71
2023/09/29 04:29:18;;;;;;;20.10;8.30;;;;;;;16.49;52.88;100150.11;79484;1299;3011633;-71
2023/09/29 04:31:46;;;;;;;18.50;8.60;;;;;;;16.51;52.81;100151.20;78341;1300;3025030;-70
2023/09/29 04:34:13;;;;;;;22.10;8.80;;;;;;;16.51;52.69;100154.40;79585;1297;3019059;-75
2023/09/29 04:36:41;;;;;;;31.40;8.70;;;;;;;16.54;52.98;100152.92;79589;1294;3013305;-75
2023/09/29 04:39:09;;;;;;;21.90;8.00;;;;;;;16.61;52.37;100153.61;78457;1296;3054363;-73
2023/09/29 04:41:37;;;;;;;25.50;8.40;;;;;;;16.64;52.64;100151.31;79568;1300;3012895;-75
2023/09/29 04:44:05;;;;;;;29.40;8.50;;;;;;;16.66;52.61;100147.45;79529;1300;3011693;-72
2023/09/29 04:46:35;;;;;;;18.80;8.40;;;;;;;16.69;52.66;100149.64;78410;1298;3070370;-73
2023/09/29 04:49:03;;;;;;;24.60;8.20;;;;;;;16.71;52.55;100151.79;79778;1298;3011598;-70
2023/09/29 04:51:33;;;;;;;25.00;8.80;;;;;;;16.74;52.45;100149.50;78961;1295;3012069;-74
2023/09/29 04:54:00;;;;;;;17.90;8.20;;;;;;;16.76;52.45;100148.92;79515;1297;3014450;-72
2023/09/29 04:56:26;;;;;;;16.90;9.10;;;;;;;16.81;52.33;100149.33;79467;1295;3011469;-72
2023/09/29 04:58:54;;;;;;;22.20;8.70;;;;;;;16.85;52.08;100148.63;78439;1300;3053058;-73
2023/09/29 05:01:21;;;;;;;26.40;8.40;;;;;;;16.88;52.29;100146.14;79642;1296;3013713;-68
2023/09/29 05:03:51;;;;;;;18.80;8.50;;;;;;;16.92;52.33;100148.11;79897;1294;3011848;-70
2023/09/29 05:06:19;;;;;;;21.10;8.60;;;;;;;16.97;52.15;100149.56;78508;1299;3057212;-74
2023/09/29 05:08:45;;;;;;;19.90;8.80;;;;;;;17.01;52.11;100152.24;79655;1300;3013241;-68
2023/09/29 05:11:20;;;;;;;21.30;9.10;;;;;;;17.04;52.01;100153.05;79575;1298;3012071;-68
2023/09/29 05:13:48;;;;;;;18.90;8.90;;;;;;;17.12;51.59;100151.61;78355;1300;3051630;-74
2023/09/29 05:16:15;;;;;;;19.00;8.10;;;;;;;17.16;51.43;100153.19;79832;1297;3013613;-72
2023/09/29 05:18:43;;;;;;;21.50;8.50;;;;;;;17.17;51.33;100151.73;79742;1298;3011598;-74
2023/09/29 05:21:11;;;;;;;23.70;9.80;;;;;;;17.21;51.19;100153.36;78429;1298;3056582;-72
2023/09/29 05:23:37;;;;;;;23.80;8.70;;;;;;;17.29;51.18;100155.95;79661;1298;3013283;-74
2023/09/29 05:26:05;;;;;;;17.80;9.10;;;;;;;17.35;50.87;100157.20;79520;1301;3012946;-72
2023/09/29 05:28:34;;;;;;;24.10;9.00;;;;;;;17.40;51.13;100156.67;78416;1299;3052666;-75
2023/09/29 05:31:02;;;;;;;21.20;8.30;;;;;;;17.42;50.95;100160.60;79594;1300;3015903;-72
2023/09/29 05:33:30;;;;;;;18.70;8.60;;;;;;;17.47;50.70;100159.88;79979;1298;3011533;-74
2023/09/29 05:35:58;;;;;;;20.40;9.00;;;;;;;17.55;50.35;100161.70;78807;1299;3055274;-71
2023/09/29 05:38:25;;;;;;;22.10;9.00;;;;;;;17.54;50.49;100159.79;79475;1299;3012043;-74
2023/09/29 05:40:51;;;;;;;19.90;9.30;;;;;;;17.60;50.26;100158.81;79701;1297;3013232;-73
2023/09/29 05:43:19;;;;;;;26.90;9.00;;;;;;;17.68;49.90;100155.77;78215;1298;3052981;-73
2023/09/29 05:45:46;;;;;;;20.10;8.80;;;;;;;17.70;50.21;100160.17;77318;1300;3095929;-72
2023/09/29 05:48:13;;;;;;;21.80;9.00;;;;;;;17.74;49.94;100157.73;79511;1298;3013439;-73
2023/09/29 05:50:42;;;;;;;19.90;8.50;;;;;;;17.78;49.91;100159.52;79009;1296;3011807;-74
2023/09/29 05:53:09;;;;;;;24.20;8.50;;;;;;;17.85;49.90;100161.60;79626;1298;3012823;-75
2023/09/29 05:55:35;;;;;;;17.40;9.20;;;;;;;17.88;49.83;100161.02;79574;1297;3011746;-75
2023/09/29 05:58:06;;;;;;;21.70;8.80;;;;;;;17.95;49.53;100154.98;78361;1300;3054204;-69
2023/09/29 06:00:33;;;;;;;22.40;9.70;;;;;;;18.00;49.28;100154.79;79685;1299;3013461;-73
2023/09/29 06:02:59;;;;;;;18.60;9.10;;;;;;;18.08;49.57;100154.34;79669;1295;3011506;-71
2023/09/29 06:05:28;;;;;;;20.60;8.90;;;;;;;18.15;49.09;100154.80;78277;1294;3027820;-70
2023/09/29 06:07:55;;;;;;;23.00;9.30;;;;;;;18.22;48.79;100150.75;79525;1300;3014351;-77
2023/09/29 06:10:22;;;;;;;21.80;9.10;;;;;;;18.27;48.92;100150.85;79804;1297;3011729;-71
2023/09/29 06:12:50;;;;;;;21.20;8.70;;;;;;;18.34;49.39;100151.56;78549;1301;3051704;-72
2023/09/29 06:15:17;;;;;;;29.30;9.30;;;;;;;18.47;48.30;100149.06;79520;1299;3019055;-74
2023/09/29 06:17:44;;;;;;;23.30;9.10;;;;;;;18.57;48.42;100149.27;79460;1298;3011633;-74
2023/09/29 06:20:12;;;;;;;24.60;8.80;;;;;;;18.65;48.40;100152.53;78343;1298;3025775;-70
2023/09/29 06:22:39;;;;;;;18.70;8.80;;;;;;;18.73;48.22;100153.24;79679;1300;3013452;-74
2023/09/29 06:25:05;;;;;;;26.20;8.90;;;;;;;18.82;47.88;100151.42;79643;1297;3012835;-74
2023/09/29 06:27:33;;;;;;;17.60;8.60;;;;;;;18.90;47.94;100150.83;78493;1299;3026730;-70
2023/09/29 06:30:00;;;;;;;25.90;9.20;;;;;;;18.96;48.14;100153.32;79627;1299;3012862;-66
2023/09/29 06:32:27;;;;;;;27.20;8.90;;;;;;;19.04;47.42;100152.33;79853;1299;3011633;-71
2023/09/29 06:34:55;;;;;;;22.50;9.40;;;;;;;19.13;47.63;100152.43;78707;1296;3026211;-70
2023/09/29 06:37:21;;;;;;;21.20;8.80;;;;;;;19.19;47.71;100155.41;79893;1294;3013572;-70
2023/09/29 06:39:48;;;;;;;17.80;8.50;;;;;;;19.26;47.57;100151.96;79915;1296;3011736;-73
2023/09/29 06:42:16;;;;;;;19.60;8.40;;;;;;;19.33;46.92;100154.46;78768;1299;3026940;-69
2023/09/29 06:44:42;;;;;;;15.40;8.60;;;;;;;19.42;47.05;100154.30;80032;1295;3018814;-69
2023/09/29 06:47:09;;;;;;;22.50;9.50;;;;;;;19.51;47.17;100150.70;79904;1298;3011740;-71
2023/09/29 06:49:37;;;;;;;27.70;8.70;;;;;;;19.63;47.35;100153.27;78433;1301;3026548;-70
2023/09/29 06:52:03;;;;;;;17.40;9.20;;;;;;;19.76;47.13;100153.85;79481;1300;3013032;-72
2023/09/29 06:54:30;;;;;;;21.60;9.40;;;;;;;19.88;46.70;100158.54;79951;1294;3011558;-73
2023/09/29 06:56:58;;;;;;;23.60;10.10;;;;;;;19.97;46.47;100154.95;78313;1299;3026702;-76
2023/09/29 06:59:25;;;;;;;20.20;9.60;;;;;;;20.02;46.32;100158.69;79453;1301;3012997;-70
2023/09/29 07:01:51;;;;;;;19.70;8.90;;;;;;;20.12;46.04;100160.48;79576;1296;3011827;-74
2023/09/29 07:04:19;;;;;;;26.20;9.00;;;;;;;20.17;45.99;100158.32;78333;1301;3030035;-74
2023/09/29 07:06:45;;;;;;;25.30;10.00;;;;;;;20.22;45.94;100157.96;79484;1296;3013662;-67
2023/09/29 07:09:13;;;;;;;22.90;9.80;;;;;;;20.31;46.26;100157.98;79731;1295;3011850;-73
2023/09/29 07:11:41;;;;;;;25.90;10.00;;;;;;;20.38;46.11;100153.39;78225;1299;3051937;-74
2023/09/29 07:14:08;;;;;;;25.70;10.20;;;;;;;20.44;46.16;100157.60;79543;1299;3013365;-74
2023/09/29 07:16:35;;;;;;;19.40;10.00;;;;;;;20.52;45.52;100154.55;79494;1300;3011475;-68
2023/09/29 07:19:03;;;;;;;28.40;10.70;;;;;;;20.63;45.47;100159.62;78331;1300;3056307;-72
2023/09/29 07:21:30;;;;;;;23.80;9.20;;;;;;;20.75;45.41;100161.42;79631;1296;3018510;-72
2023/09/29 07:23:57;;;;;;;21.20;10.20;;;;;;;20.85;45.37;100159.05;79591;1300;3011512;-74
2023/09/29 07:26:26;;;;;;;25.20;10.60;;;;;;;20.90;45.14;100158.23;78461;1299;3028224;-75
2023/09/29 07:28:54;;;;;;;21.20;10.00;;;;;;;20.93;44.98;100162.04;79738;1299;3011887;-72
2023/09/29 07:31:20;;;;;;;19.10;9.70;;;;;;;20.98;45.10;100160.71;79525;1298;3013528;-75
2023/09/29 07:33:48;;;;;;;18.70;10.80;;;;;;;21.03;45.14;100159.55;78477;1294;3055839;-70
2023/09/29 07:36:15;;;;;;;26.10;10.60;;;;;;;21.07;45.12;100158.64;79733;1294;3013173;-74
2023/09/29 07:38:41;;;;;;;24.90;10.40;;;;;;;21.23;44.94;100158.23;79875;1298;3012076;-71
2023/09/29 07:41:10;;;;;;;25.10;10.70;;;;;;;21.33;44.44;100160.61;78335;1299;3026712;-65
2023/09/29 07:43:37;;;;;;;24.60;10.80;;;;;;;21.41;44.45;100159.69;79693;1298;3013477;-69
2023/09/29 07:46:03;;;;;;;23.50;10.60;;;;;;;21.47;44.05;100161.23;79651;1298;3011362;-74
2023/09/29 07:48:31;;;;;;;21.90;10.00;;;;;;;21.60;43.92;100157.55;78416;1300;3056426;-70
2023/09/29 07:50:59;;;;;;;24.90;9.90;;;;;;;21.73;43.73;100158.61;79701;1294;3018746;-70
2023/09/29 07:53:26;;;;;;;22.40;10.10;;;;;;;21.80;43.15;100156.20;79679;1296;3011392;-72
2023/09/29 07:55:53;;;;;;;29.00;10.40;;;;;;;21.87;43.22;100157.23;78267;1299;3052100;-65
2023/09/29 07:58:20;;;;;;;25.20;9.70;;;;;;;21.95;43.02;100158.09;80494;1297;3018603;-71
2023/09/29 08:00:46;;;;;;;31.10;10.10;;;;;;;22.05;42.96;100157.50;80593;1296;3011824;-68
2023/09/29 08:03:14;;;;;;;35.80;10.50;;;;;;;22.13;42.91;100155.77;79388;1300;3027489;-68
2023/09/29 08:05:41;;;;;;;17.80;9.30;;;;;;;22.23;42.63;100157.12;80780;1295;3018510;-68
2023/09/29 08:08:07;;;;;;;30.60;10.00;;;;;;;22.31;42.42;100154.25;80530;1300;3013249;-68
2023/09/29 08:10:35;;;;;;;23.80;8.70;;;;;;;22.40;42.51;100152.80;78608;1299;3027435;-73
2023/09/29 08:13:02;;;;;;;19.30;8.70;;;;;;;22.51;42.39;100153.16;79709;1298;3013215;-72
2023/09/29 08:15:29;;;;;;;24.80;8.90;;;;;;;22.64;41.79;100147.59;79580;1298;3011663;-75
2023/09/29 08:17:57;;;;;;;23.40;8.90;;;;;;;22.75;41.24;100146.64;78281;1297;3029033;-76
2023/09/29 08:20:23;;;;;;;28.40;9.30;;;;;;;22.82;40.79;100146.35;79804;1297;3018271;-77
2023/09/29 08:22:50;;;;;;;35.40;14.10;;;;;;;22.83;40.89;100143.54;79434;1295;3013134;-73
2023/09/29 08:25:20;;;;;;;30.50;10.50;;;;;;;22.81;41.39;100141.83;78298;1300;3027044;-75
2023/09/29 08:27:46;;;;;;;26.70;12.70;;;;;;;22.89;41.29;100142.55;79675;1300;3013157;-73
2023/09/29 08:30:13;;;;;;;28.00;10.40;;;;;;;22.90;40.69;100137.43;79581;1298;3011365;-75
2023/09/29 08:32:43;;;;;;;23.00;10.10;;;;;;;22.94;40.60;100135.24;78368;1298;3056348;-75
2023/09/29 08:35:16;;;;;;;23.90;10.90;;;;;;;23.00;40.52;100134.15;79574;1295;3013453;-75
2023/09/29 08:37:45;;;;;;;34.30;10.50;;;;;;;23.07;40.39;100135.60;78224;1299;3050082;-75
2023/09/29 08:40:13;;;;;;;25.40;10.20;;;;;;;23.14;40.22;100133.55;79573;1300;3013406;-72
2023/09/29 08:42:41;;;;;;;19.20;9.30;;;;;;;23.27;40.13;100133.17;79718;1294;3011746;-74
2023/09/29 08:45:10;;;;;;;17.60;9.40;;;;;;;23.41;39.80;100134.23;78471;1301;3051199;-75
2023/09/29 08:47:37;;;;;;;29.40;9.50;;;;;;;23.51;39.49;100133.61;79529;1296;3012928;-76
2023/09/29 08:50:05;;;;;;;20.80;9.40;;;;;;;23.61;39.52;100130.88;79756;1294;3013393;-74
2023/09/29 08:52:33;;;;;;;17.50;9.70;;;;;;;23.69;39.00;100129.92;78501;1297;3050822;-77
2023/09/29 08:55:00;;;;;;;20.30;10.10;;;;;;;23.72;39.12;100127.02;79710;1296;3012735;-75
2023/09/29 08:57:27;;;;;;;26.20;10.20;;;;;;;23.84;38.60;100129.06;79494;1300;3011602;-73
2023/09/29 08:59:55;;;;;;;29.70;10.60;;;;;;;23.93;38.35;100126.30;78615;1294;3026557;-75
2023/09/29 09:02:24;;;;;;;29.50;11.10;;;;;;;23.97;38.31;100124.46;79805;1298;3012872;-76
2023/09/29 09:04:51;;;;;;;24.80;9.80;;;;;;;24.03;38.17;100124.86;79736;1299;3011542;-74
2023/09/29 09:07:21;;;;;;;26.50;9.80;;;;;;;24.09;38.21;100126.90;78442;1300;3049646;-72
2023/09/29 09:09:49;;;;;;;19.10;9.50;;;;;;;24.21;37.87;100122.63;79684;1302;3013647;-75
2023/09/29 09:12:17;;;;;;;25.40;10.10;;;;;;;24.33;37.58;100118.68;79596;1300;3011438;-72
2023/09/29 09:14:45;;;;;;;24.10;10.20;;;;;;;24.43;37.39;100118.66;78367;1297;3051158;-73
2023/09/29 09:17:12;;;;;;;32.50;10.30;;;;;;;24.52;37.42;100118.67;79647;1295;3013484;-75
2023/09/29 09:19:51;;;;;;;34.00;10.30;;;;;;;24.59;37.09;100121.70;79437;1296;3011568;-77
2023/09/29 09:22:22;;;;;;;18.80;10.20;;;;;;;24.72;37.18;100121.02;78460;1299;3049921;-76
2023/09/29 09:24:48;;;;;;;21.90;10.10;;;;;;;24.84;36.41;100119.94;79600;1295;3011696;-75
2023/09/29 09:27:20;;;;;;;22.50;9.60;;;;;;;24.88;35.98;100112.70;79145;1295;3011616;-74
2023/09/29 09:29:47;;;;;;;22.40;9.30;;;;;;;24.93;35.90;100110.11;79621;1299;3011458;-73
2023/09/29 09:32:24;;;;;;;28.00;9.50;;;;;;;25.14;36.19;100109.61;79282;1294;3011568;-72
2023/09/29 09:34:52;;;;;;;17.60;9.40;;;;;;;25.30;35.76;100105.84;78274;1297;3057241;-72
2023/09/29 09:37:26;;;;;;;21.40;8.90;;;;;;;25.42;35.42;100106.42;79475;1295;3012979;-74
2023/09/29 09:40:01;;;;;;;21.60;9.10;;;;;;;25.57;35.25;100098.85;78208;1300;3050316;-74
2023/09/29 09:42:27;;;;;;;23.30;8.90;;;;;;;25.71;34.71;100095.88;79723;1299;3012814;-71
2023/09/29 09:44:57;;;;;;;25.70;8.60;;;;;;;25.80;34.56;100097.70;78417;1299;3052817;-72
2023/09/29 09:47:25;;;;;;;21.40;8.20;;;;;;;25.92;34.09;100091.59;79795;1297;3013711;-72
2023/09/29 09:49:55;;;;;;;19.00;7.50;;;;;;;26.08;33.90;100089.64;79001;1297;3011803;-75
2023/09/29 09:52:29;;;;;;;18.00;7.50;;;;;;;26.19;33.13;100086.60;79757;1298;3012976;-72
2023/09/29 09:54:59;;;;;;;17.00;7.00;;;;;;;26.18;33.19;100081.29;78327;1297;3053014;-72
2023/09/29 09:57:35;;;;;;;16.90;6.00;;;;;;;26.22;32.49;100074.02;79543;1300;3011997;-72
2023/09/29 10:00:08;;;;;;;18.90;6.80;;;;;;;26.28;32.19;100067.91;78285;1300;3051996;-69
2023/09/29 10:02:39;;;;;;;18.30;7.20;;;;;;;26.38;32.49;100073.01;79652;1297;3011449;-72
2023/09/29 10:05:22;;;;;;;18.80;7.40;;;;;;;26.50;31.88;100072.88;78223;1300;3068004;-70
2023/09/29 10:07:53;;;;;;;16.30;6.90;;;;;;;26.55;32.09;100070.83;78247;1300;3050798;-73
2023/09/29 10:10:38;;;;;;;18.70;6.60;;;;;;;26.71;31.71;100072.55;79474;1298;3013792;-74
2023/09/29 10:13:11;;;;;;;15.10;6.00;;;;;;;26.88;30.96;100070.33;78248;1295;3048826;-73
2023/09/29 10:15:39;;;;;;;15.10;5.70;;;;;;;27.00;30.94;100065.31;79649;1295;3011834;-75
2023/09/29 10:18:18;;;;;;;12.60;5.50;;;;;;;27.15;30.84;100059.95;78706;1297;3049094;-72
2023/09/29 10:20:50;;;;;;;10.00;4.60;;;;;;;27.28;29.93;100061.91;78312;1301;3051848;-74
2023/09/29 10:23:16;;;;;;;9.40;4.30;;;;;;;27.39;29.28;100056.09;79339;1297;3012048;-72
2023/09/29 10:26:00;;;;;;;18.10;4.90;;;;;;;27.43;28.77;100053.29;78310;1298;3026621;-72
2023/09/29 10:28:36;;;;;;;8.10;4.20;;;;;;;27.50;28.40;100054.68;78230;1296;3051604;-74
2023/09/29 10:31:09;;;;;;;10.60;4.20;;;;;;;27.58;28.99;100051.55;78948;1300;3011458;-70
2023/09/29 10:33:59;;;;;;;13.40;4.50;;;;;;;27.68;29.05;100052.03;79732;1297;3011892;-71
2023/09/29 10:36:30;;;;;;;11.70;5.10;;;;;;;27.79;28.66;100049.98;78208;1299;3050187;-72
2023/09/29 10:38:57;;;;;;;11.30;4.80;;;;;;;27.72;29.26;100046.84;79633;1296;3014083;-73
2023/09/29 10:41:28;;;;;;;15.60;5.40;;;;;;;27.69;28.27;100041.45;78489;1300;3028431;-70
2023/09/29 10:44:01;;;;;;;14.10;4.60;;;;;;;27.76;27.56;100038.86;80067;1300;3012852;-75
2023/09/29 10:46:29;;;;;;;11.90;4.60;;;;;;;27.92;27.25;100035.98;78521;1294;3052469;-76
2023/09/29 10:48:55;;;;;;;11.70;4.50;;;;;;;28.04;27.05;100028.73;79643;1300;3018130;-72
2023/09/29 10:51:27;;;;;;;14.40;4.00;;;;;;;28.06;26.97;100024.44;79530;1294;3011635;-75
2023/09/29 10:53:56;;;;;;;12.30;4.50;;;;;;;28.10;26.97;100028.30;78214;1294;3048682;-72
2023/09/29 10:56:24;;;;;;;10.40;4.40;;;;;;;28.12;27.39;100029.86;79569;1295;3011957;-73
2023/09/29 10:58:54;;;;;;;16.00;4.80;;;;;;;28.17;26.96;100028.11;79053;1299;3012702;-72
2023/09/29 11:01:30;;;;;;;10.10;4.00;;;;;;;28.09;26.66;100029.08;79500;1298;3013694;-74
2023/09/29 11:03:58;;;;;;;16.00;4.50;;;;;;;28.04;26.57;100027.58;78436;1294;3068980;-70
2023/09/29 11:06:25;;;;;;;11.10;4.30;;;;;;;28.07;26.34;100025.44;79588;1294;3012900;-72
2023/09/29 11:08:58;;;;;;;11.40;4.20;;;;;;;28.07;26.32;100023.58;79536;1294;3012998;-74